createdAt,value
2022-10-23T00:00:16.882Z,3.38
2022-10-23T00:02:18.666Z,2.78
2022-10-23T00:04:22.924Z,2.97
2022-10-23T00:06:31.401Z,2.80
2022-10-23T00:08:33.555Z,2.78
2022-10-23T00:10:35.697Z,2.08
2022-10-23T00:12:39.280Z,3.90
2022-10-23T00:14:41.265Z,2.40
2022-10-23T00:16:43.140Z,3.83
2022-10-23T00:18:45.803Z,3.40
2022-10-23T00:20:50.058Z,2.25
2022-10-23T00:22:54.656Z,2.15
2022-10-23T00:24:58.858Z,1.73
2022-10-23T00:27:00.546Z,2.05
2022-10-23T00:29:03.242Z,3.67
2022-10-23T00:31:05.810Z,2.20
2022-10-23T00:33:07.465Z,4.28
2022-10-23T00:35:09.509Z,3.30
2022-10-23T00:37:11.261Z,2.53
2022-10-23T00:39:12.924Z,2.80
2022-10-23T00:41:33.627Z,2.80
2022-10-23T00:43:57.720Z,2.17
2022-10-23T00:45:59.645Z,3.88
2022-10-23T00:48:02.745Z,5.63
2022-10-23T00:50:05.586Z,3.20
2022-10-23T00:52:12.830Z,3.38
2022-10-23T00:54:25.625Z,2.88
2022-10-23T00:56:29.175Z,3.90
2022-10-23T00:58:30.742Z,3.10
2022-10-23T01:00:44.867Z,3.90
2022-10-23T01:02:49.238Z,3.72
2022-10-23T01:04:51.241Z,3.30
2022-10-23T01:07:02.743Z,3.30
2022-10-23T01:09:20.595Z,2.70
2022-10-23T01:11:50.789Z,2.60
2022-10-23T01:16:38.244Z,2.78
2022-10-23T01:18:48.024Z,2.80
2022-10-23T01:21:06.203Z,1.83
2022-10-23T01:23:14.566Z,3.33
2022-10-23T01:25:55.114Z,3.03
2022-10-23T01:28:05.681Z,2.78
2022-10-23T01:30:10.405Z,2.20
2022-10-23T01:32:34.200Z,2.42
2022-10-23T01:34:48.840Z,2.65
2022-10-23T01:36:53.971Z,2.55
2022-10-23T01:39:07.905Z,2.20
2022-10-23T01:41:35.638Z,2.85
2022-10-23T01:43:44.579Z,2.25
2022-10-23T01:45:51.248Z,2.63
2022-10-23T01:47:56.606Z,2.88
2022-10-23T01:50:00.075Z,2.47
2022-10-23T01:52:06.420Z,3.80
2022-10-23T01:54:11.948Z,2.55
2022-10-23T01:56:20.094Z,4.53
2022-10-23T01:58:23.423Z,3.45
2022-10-23T02:00:27.775Z,3.00
2022-10-23T02:02:32.353Z,2.35
2022-10-23T02:04:39.823Z,4.45
2022-10-23T02:06:41.874Z,2.90
2022-10-23T02:08:43.569Z,2.22
2022-10-23T02:10:54.280Z,2.63
2022-10-23T02:13:29.523Z,2.08
2022-10-23T02:15:37.802Z,4.00
2022-10-23T02:18:05.065Z,3.17
2022-10-23T02:20:29.448Z,2.00
2022-10-23T02:22:37.979Z,3.63
2022-10-23T02:24:49.358Z,3.58
2022-10-23T02:26:58.639Z,3.83
2022-10-23T02:29:13.837Z,3.90
2022-10-23T02:31:22.308Z,3.30
2022-10-23T02:33:27.236Z,2.72
2022-10-23T02:35:31.525Z,2.00
2022-10-23T02:37:42.636Z,2.30
2022-10-23T02:39:45.155Z,2.95
2022-10-23T02:41:58.750Z,3.47
2022-10-23T02:44:07.528Z,2.00
2022-10-23T02:46:28.941Z,1.73
2022-10-23T02:48:39.786Z,2.72
2022-10-23T02:51:01.450Z,2.55
2022-10-23T02:53:30.016Z,2.40
2022-10-23T02:55:40.120Z,3.08
2022-10-23T02:57:56.746Z,3.22
2022-10-23T03:00:06.662Z,2.50
2022-10-23T03:02:26.700Z,2.50
2022-10-23T03:04:30.676Z,3.28
2022-10-23T03:06:32.918Z,2.63
2022-10-23T03:08:45.782Z,5.10
2022-10-23T03:12:50.538Z,2.03
2022-10-23T03:14:53.108Z,4.63
2022-10-23T03:16:54.781Z,3.85
2022-10-23T03:18:56.332Z,2.08
2022-10-23T03:20:58.785Z,2.50
2022-10-23T03:23:00.402Z,1.92
2022-10-23T03:25:02.075Z,3.25
2022-10-23T03:27:05.903Z,3.28
2022-10-23T03:29:07.564Z,2.88
2022-10-23T03:31:15.568Z,3.15
2022-10-23T03:33:21.934Z,2.92
2022-10-23T03:35:23.622Z,2.92
2022-10-23T03:37:28.100Z,3.08
2022-10-23T03:39:29.778Z,2.75
2022-10-23T03:41:33.527Z,2.47
2022-10-23T03:43:35.131Z,1.95
2022-10-23T03:45:38.641Z,4.07
2022-10-23T03:47:43.501Z,3.70
2022-10-23T03:49:45.609Z,2.25
2022-10-23T03:51:53.321Z,2.65
2022-10-23T03:53:56.098Z,2.35
2022-10-23T03:55:57.807Z,3.13
2022-10-23T03:57:59.441Z,2.10
2022-10-23T04:00:01.444Z,2.00
2022-10-23T04:02:07.415Z,2.42
2022-10-23T04:04:09.635Z,2.83
2022-10-23T04:06:11.516Z,3.13
2022-10-23T04:08:17.608Z,2.90
2022-10-23T04:10:25.557Z,3.05
2022-10-23T04:12:27.618Z,4.45
2022-10-23T04:14:29.238Z,3.08
2022-10-23T04:16:34.216Z,2.25
2022-10-23T04:18:35.956Z,2.40
2022-10-23T04:20:37.496Z,2.15
2022-10-23T04:22:39.080Z,3.03
2022-10-23T04:24:46.701Z,2.90
2022-10-23T04:26:53.048Z,2.22
2022-10-23T04:28:55.699Z,2.28
2022-10-23T04:31:02.985Z,3.45
2022-10-23T04:33:04.922Z,4.82
2022-10-23T04:35:07.724Z,2.50
2022-10-23T04:37:09.694Z,2.53
2022-10-23T04:39:11.311Z,2.03
2022-10-23T04:41:12.874Z,3.83
2022-10-23T04:43:15.699Z,2.20
2022-10-23T04:45:20.430Z,3.28
2022-10-23T04:47:21.943Z,2.58
2022-10-23T04:49:31.518Z,2.28
2022-10-23T04:51:55.524Z,1.60
2022-10-23T04:54:17.389Z,2.85
2022-10-23T04:56:32.335Z,5.15
2022-10-23T04:58:38.227Z,3.05
2022-10-23T05:00:42.490Z,2.33
2022-10-23T05:02:45.631Z,1.80
2022-10-23T05:04:55.009Z,2.40
2022-10-23T05:07:08.850Z,3.65
2022-10-23T05:09:22.300Z,3.33
2022-10-23T05:11:49.966Z,4.30
2022-10-23T05:13:51.813Z,2.05
2022-10-23T05:15:53.915Z,2.28
2022-10-23T05:18:00.183Z,1.30
2022-10-23T05:20:05.477Z,3.60
2022-10-23T05:22:07.733Z,2.47
2022-10-23T05:24:26.009Z,3.00
2022-10-23T05:26:32.756Z,3.47
2022-10-23T05:28:46.976Z,2.63
2022-10-23T05:30:52.237Z,2.90
2022-10-23T05:33:01.210Z,2.83
2022-10-23T05:35:09.785Z,1.70
2022-10-23T05:37:15.796Z,2.72
2022-10-23T05:39:20.741Z,1.90
2022-10-23T05:41:22.714Z,2.95
2022-10-23T05:43:25.994Z,1.48
2022-10-23T05:45:34.032Z,1.90
2022-10-23T05:48:05.626Z,2.85
2022-10-23T05:50:39.230Z,3.72
2022-10-23T05:53:01.599Z,2.90
2022-10-23T05:55:06.935Z,2.97
2022-10-23T05:57:34.084Z,2.58
2022-10-23T05:59:39.811Z,2.88
2022-10-23T06:01:57.857Z,1.98
2022-10-23T06:04:17.796Z,2.95
2022-10-23T06:06:57.313Z,2.08
2022-10-23T06:08:59.593Z,3.80
2022-10-23T06:11:09.452Z,3.90
2022-10-23T06:13:12.288Z,4.60
2022-10-23T06:15:14.031Z,5.15
2022-10-23T06:17:34.926Z,4.40
2022-10-23T06:19:37.313Z,4.03
2022-10-23T06:21:40.263Z,4.25
2022-10-23T06:23:45.520Z,6.18
2022-10-23T06:25:56.877Z,6.55
2022-10-23T06:28:21.156Z,4.55
2022-10-23T06:30:24.077Z,5.05
2022-10-23T06:32:26.018Z,7.28
2022-10-23T06:34:44.202Z,6.15
2022-10-23T06:36:47.299Z,6.20
2022-10-23T06:39:18.444Z,4.63
2022-10-23T06:41:44.360Z,4.30
2022-10-23T06:43:51.666Z,4.00
2022-10-23T06:46:04.356Z,4.22
2022-10-23T06:48:32.300Z,3.58
2022-10-23T06:50:42.870Z,3.92
2022-10-23T06:52:48.990Z,3.63
2022-10-23T06:54:52.586Z,3.88
2022-10-23T06:56:59.276Z,4.78
2022-10-23T06:59:20.178Z,6.70
2022-10-23T07:01:24.946Z,5.47
2022-10-23T07:03:26.913Z,7.20
2022-10-23T07:05:28.680Z,5.82
2022-10-23T07:07:31.059Z,4.90
2022-10-23T07:09:34.893Z,4.97
2022-10-23T07:11:51.688Z,4.18
2022-10-23T07:13:55.964Z,4.60
2022-10-23T07:15:57.717Z,4.65
2022-10-23T07:18:01.923Z,4.30
2022-10-23T07:20:19.057Z,3.83
2022-10-23T07:22:23.449Z,4.18
2022-10-23T07:24:38.421Z,3.45
2022-10-23T07:28:54.983Z,4.45
2022-10-23T07:31:01.356Z,3.22
2022-10-23T07:33:23.057Z,3.22
2022-10-23T07:35:35.563Z,3.47
2022-10-23T07:37:49.602Z,2.40
2022-10-23T07:39:51.906Z,2.53
2022-10-23T07:41:53.755Z,3.65
2022-10-23T07:43:55.505Z,3.20
2022-10-23T07:45:59.734Z,2.75
2022-10-23T07:48:08.065Z,2.00
2022-10-23T07:50:29.727Z,3.00
2022-10-23T07:52:34.997Z,2.08
2022-10-23T07:54:46.272Z,3.42
2022-10-23T07:56:53.891Z,4.15
2022-10-23T07:58:59.083Z,3.08
2022-10-23T08:01:03.081Z,1.83
2022-10-23T08:03:12.687Z,1.83
2022-10-23T08:05:14.847Z,1.95
2022-10-23T08:07:24.383Z,1.70
2022-10-23T08:09:29.617Z,1.92
2022-10-23T08:11:36.526Z,1.75
2022-10-23T08:13:41.605Z,3.08
2022-10-23T08:15:44.582Z,1.20
2022-10-23T08:18:06.001Z,1.15
2022-10-23T08:20:15.444Z,1.83
2022-10-23T08:22:19.643Z,1.27
2022-10-23T08:24:22.294Z,1.35
2022-10-23T08:26:25.218Z,1.20
2022-10-23T08:28:28.499Z,1.83
2022-10-23T08:30:32.418Z,1.17
2022-10-23T08:32:33.979Z,1.63
2022-10-23T08:34:37.857Z,1.15
2022-10-23T08:36:40.602Z,1.10
2022-10-23T08:38:43.026Z,1.40
2022-10-23T08:40:51.666Z,1.75
2022-10-23T08:43:37.057Z,1.30
2022-10-23T08:45:58.644Z,0.95
2022-10-23T08:48:23.078Z,1.13
2022-10-23T08:50:47.449Z,1.05
2022-10-23T08:52:55.065Z,1.20
2022-10-23T08:55:18.890Z,1.23
2022-10-23T08:57:23.835Z,5.65
2022-10-23T09:00:14.018Z,1.17
2022-10-23T09:02:30.218Z,1.35
2022-10-23T09:04:35.247Z,3.00
2022-10-23T09:07:21.701Z,2.38
2022-10-23T09:09:51.498Z,1.00
2022-10-23T09:12:05.335Z,1.23
2022-10-23T09:14:26.324Z,1.08
2022-10-23T09:16:34.135Z,2.08
2022-10-23T09:18:39.691Z,2.25
2022-10-23T09:20:44.193Z,1.02
2022-10-23T09:22:47.945Z,1.35
2022-10-23T09:24:53.699Z,2.33
2022-10-23T09:26:55.658Z,1.20
2022-10-23T09:29:05.954Z,1.00
2022-10-23T09:31:09.842Z,1.35
2022-10-23T09:33:17.396Z,1.55
2022-10-23T09:35:27.687Z,1.00
2022-10-23T09:37:34.250Z,0.70
2022-10-23T09:39:36.585Z,1.40
2022-10-23T09:41:40.260Z,0.90
2022-10-23T09:43:42.003Z,1.30
2022-10-23T09:45:44.087Z,1.60
2022-10-23T09:47:50.598Z,1.10
2022-10-23T09:49:54.641Z,1.00
2022-10-23T09:52:07.500Z,1.02
2022-10-23T09:54:15.648Z,1.33
2022-10-23T09:56:30.542Z,1.50
2022-10-23T09:58:35.677Z,1.20
2022-10-23T10:00:49.226Z,1.25
2022-10-23T10:03:04.739Z,1.65
2022-10-23T10:05:24.324Z,1.42
2022-10-23T10:07:33.335Z,1.48
2022-10-23T10:09:43.123Z,1.02
2022-10-23T10:11:52.961Z,2.50
2022-10-23T10:13:58.772Z,0.88
2022-10-23T10:16:04.871Z,1.20
2022-10-23T10:18:40.007Z,1.10
2022-10-23T10:20:47.661Z,0.85
2022-10-23T10:23:30.202Z,1.00
2022-10-23T10:25:52.389Z,1.27
2022-10-23T10:28:24.714Z,1.02
2022-10-23T10:30:34.381Z,2.17
2022-10-23T10:32:45.642Z,1.40
2022-10-23T10:34:56.295Z,1.00
2022-10-23T10:37:11.791Z,2.15
2022-10-23T10:39:47.783Z,1.13
2022-10-23T10:42:08.944Z,1.00
2022-10-23T10:44:26.432Z,3.05
2022-10-23T10:46:52.030Z,0.98
2022-10-23T10:49:16.885Z,3.70
2022-10-23T10:52:01.315Z,4.28
2022-10-23T10:54:22.801Z,4.85
2022-10-23T10:56:29.833Z,3.05
2022-10-23T10:58:40.090Z,1.88
2022-10-23T11:00:44.501Z,2.00
2022-10-23T11:03:06.552Z,1.52
2022-10-23T11:05:31.616Z,2.22
2022-10-23T11:07:43.029Z,1.48
2022-10-23T11:09:46.276Z,1.10
2022-10-23T11:11:48.855Z,0.90
2022-10-23T11:13:53.133Z,1.05
2022-10-23T11:15:59.398Z,1.00
2022-10-23T11:18:06.057Z,0.80
2022-10-23T11:20:28.464Z,0.90
2022-10-23T11:22:33.140Z,2.35
2022-10-23T11:25:12.266Z,1.35
2022-10-23T11:27:58.150Z,1.92
2022-10-23T11:30:21.846Z,1.98
2022-10-23T11:32:41.151Z,1.45
2022-10-23T11:34:51.992Z,0.95
2022-10-23T11:36:56.629Z,1.25
2022-10-23T11:39:27.101Z,1.00
2022-10-23T11:41:34.572Z,1.50
2022-10-23T11:43:49.967Z,1.33
2022-10-23T11:46:32.707Z,1.30
2022-10-23T11:48:42.302Z,1.20
2022-10-23T11:50:44.873Z,2.10
2022-10-23T11:53:13.050Z,1.77
2022-10-23T11:55:23.083Z,0.80
2022-10-23T11:57:25.001Z,0.95
2022-10-23T11:59:38.088Z,1.95
2022-10-23T12:01:44.217Z,1.23
2022-10-23T12:03:51.306Z,1.00
2022-10-23T12:06:04.864Z,1.00
2022-10-23T12:10:54.258Z,0.80
2022-10-23T12:12:58.920Z,1.23
2022-10-23T12:15:21.289Z,1.20
2022-10-23T12:17:23.002Z,0.98
2022-10-23T12:19:28.617Z,1.00
2022-10-23T12:21:35.153Z,0.98
2022-10-23T12:23:58.668Z,1.08
2022-10-23T12:26:37.337Z,1.30
2022-10-23T12:28:51.235Z,1.38
2022-10-23T12:31:16.425Z,0.90
2022-10-23T12:33:33.660Z,1.85
2022-10-23T12:35:48.931Z,0.93
2022-10-23T12:37:59.392Z,1.00
2022-10-23T12:40:07.702Z,1.30
2022-10-23T12:42:21.355Z,1.27
2022-10-23T12:44:26.868Z,1.02
2022-10-23T12:46:43.440Z,1.15
2022-10-23T12:48:54.023Z,2.10
2022-10-23T12:50:56.330Z,1.75
2022-10-23T12:53:03.934Z,0.95
2022-10-23T12:55:13.855Z,1.40
2022-10-23T12:57:30.275Z,1.00
2022-10-23T12:59:39.290Z,1.13
2022-10-23T13:01:43.342Z,1.20
2022-10-23T13:03:45.861Z,1.48
2022-10-23T13:05:49.969Z,1.10
2022-10-23T13:07:51.926Z,1.13
2022-10-23T13:10:03.266Z,1.30
2022-10-23T13:12:18.554Z,0.90
2022-10-23T13:14:55.471Z,1.30
2022-10-23T13:17:08.525Z,1.10
2022-10-23T13:19:23.306Z,1.40
2022-10-23T13:21:28.745Z,1.20
2022-10-23T13:23:34.020Z,1.77
2022-10-23T13:25:38.303Z,1.45
2022-10-23T13:27:39.880Z,1.85
2022-10-23T13:29:43.497Z,2.15
2022-10-23T13:31:45.290Z,1.13
2022-10-23T13:33:52.547Z,1.30
2022-10-23T13:36:23.043Z,1.50
2022-10-23T13:38:33.107Z,1.45
2022-10-23T13:40:37.652Z,1.50
2022-10-23T13:42:41.693Z,1.30
2022-10-23T13:44:43.505Z,2.10
2022-10-23T13:46:46.608Z,1.95
2022-10-23T13:48:49.696Z,1.15
2022-10-23T13:50:52.248Z,1.38
2022-10-23T13:52:53.963Z,3.25
2022-10-23T13:54:55.591Z,1.30
2022-10-23T13:56:57.642Z,2.47
2022-10-23T13:58:59.374Z,1.30
2022-10-23T14:01:01.275Z,2.75
2022-10-23T14:03:03.453Z,1.33
2022-10-23T14:05:05.123Z,1.33
2022-10-23T14:07:06.959Z,1.80
2022-10-23T14:09:12.406Z,1.10
2022-10-23T14:11:15.921Z,1.30
2022-10-23T14:13:17.695Z,1.30
2022-10-23T14:15:20.007Z,1.90
2022-10-23T14:17:21.983Z,1.30
2022-10-23T14:19:23.813Z,1.30
2022-10-23T14:21:25.648Z,1.30
2022-10-23T14:23:27.372Z,2.45
2022-10-23T14:25:28.953Z,2.28
2022-10-23T14:27:30.538Z,1.10
2022-10-23T14:29:32.307Z,1.40
2022-10-23T14:31:37.092Z,1.77
2022-10-23T14:33:39.821Z,1.80
2022-10-23T14:35:43.287Z,3.63
2022-10-23T14:37:45.281Z,1.50
2022-10-23T14:39:49.938Z,1.30
2022-10-23T14:41:52.341Z,2.25
2022-10-23T14:43:54.487Z,1.13
2022-10-23T14:45:56.226Z,1.42
2022-10-23T14:48:05.140Z,1.30
2022-10-23T14:50:07.653Z,1.70
2022-10-23T14:52:09.411Z,1.98
2022-10-23T14:54:10.867Z,2.28
2022-10-23T14:56:16.129Z,2.83
2022-10-23T14:58:17.713Z,2.33
2022-10-23T15:00:19.536Z,2.03
2022-10-23T15:02:21.276Z,1.98
2022-10-23T15:04:23.427Z,2.08
2022-10-23T15:06:25.551Z,2.85
2022-10-23T15:08:27.570Z,2.80
2022-10-23T15:10:29.201Z,1.65
2022-10-23T15:12:30.963Z,1.55
2022-10-23T15:14:32.810Z,1.60
2022-10-23T15:16:41.107Z,1.70
2022-10-23T15:18:42.970Z,1.73
2022-10-23T15:20:52.359Z,2.13
2022-10-23T15:22:53.956Z,2.03
2022-10-23T15:24:56.869Z,1.50
2022-10-23T15:27:00.385Z,1.50
2022-10-23T15:29:02.574Z,1.50
2022-10-23T15:31:05.175Z,2.50
2022-10-23T15:33:07.604Z,1.50
2022-10-23T15:35:09.110Z,1.45
2022-10-23T15:37:11.383Z,1.45
2022-10-23T15:39:14.648Z,1.40
2022-10-23T15:41:22.322Z,1.60
2022-10-23T15:43:25.020Z,1.42
2022-10-23T15:45:29.125Z,1.45
2022-10-23T15:47:33.151Z,1.73
2022-10-23T15:49:34.943Z,1.52
2022-10-23T15:51:37.971Z,3.42
2022-10-23T15:53:39.478Z,1.60
2022-10-23T15:55:41.101Z,1.85
2022-10-23T15:57:42.802Z,1.70
2022-10-23T15:59:44.252Z,1.55
2022-10-23T16:01:46.350Z,2.00
2022-10-23T16:03:47.907Z,1.70
2022-10-23T16:05:49.751Z,1.98
2022-10-23T16:07:51.341Z,1.77
2022-10-23T16:09:52.849Z,2.60
2022-10-23T16:11:54.704Z,2.30
2022-10-23T16:13:59.952Z,2.28
2022-10-23T16:16:05.075Z,2.03
2022-10-23T16:18:08.837Z,2.03
2022-10-23T16:20:11.107Z,3.90
2022-10-23T16:22:12.897Z,3.00
2022-10-23T16:24:14.482Z,3.45
2022-10-23T16:26:17.313Z,3.72
2022-10-23T16:28:18.844Z,4.78
2022-10-23T16:30:22.829Z,4.07
2022-10-23T16:32:24.469Z,4.15
2022-10-23T16:34:26.324Z,3.53
2022-10-23T16:36:29.107Z,3.22
2022-10-23T16:38:39.831Z,3.90
2022-10-23T16:40:41.799Z,3.50
2022-10-23T16:43:02.205Z,3.47
2022-10-23T16:45:10.996Z,2.33
2022-10-23T16:47:12.736Z,2.33
2022-10-23T16:49:17.210Z,2.42
2022-10-23T16:51:28.033Z,2.67
2022-10-23T16:53:31.305Z,2.70
2022-10-23T16:55:32.898Z,2.40
2022-10-23T16:57:36.846Z,2.65
2022-10-23T16:59:38.450Z,2.35
2022-10-23T17:01:41.280Z,2.97
2022-10-23T17:03:46.147Z,3.13
2022-10-23T17:05:47.870Z,2.30
2022-10-23T17:07:52.389Z,2.50
2022-10-23T17:09:54.106Z,2.50
2022-10-23T17:11:55.683Z,2.88
2022-10-23T17:14:03.291Z,2.60
2022-10-23T17:16:17.317Z,2.70
2022-10-23T17:18:21.216Z,3.75
2022-10-23T17:20:22.970Z,3.17
2022-10-23T17:22:24.639Z,2.67
2022-10-23T17:24:29.573Z,2.85
2022-10-23T17:26:31.997Z,3.28
2022-10-23T17:28:37.951Z,3.80
2022-10-23T17:30:39.859Z,3.13
2022-10-23T17:32:43.283Z,3.78
2022-10-23T17:34:46.486Z,5.57
2022-10-23T17:36:51.514Z,3.28
2022-10-23T17:38:53.921Z,4.30
2022-10-23T17:40:57.714Z,3.20
2022-10-23T17:43:00.643Z,3.75
2022-10-23T17:45:02.365Z,3.30
2022-10-23T17:47:04.219Z,3.45
2022-10-23T17:49:06.622Z,2.63
2022-10-23T17:51:11.637Z,3.13
2022-10-23T17:53:13.491Z,3.15
2022-10-23T17:55:15.408Z,3.08
2022-10-23T17:57:17.051Z,2.83
2022-10-23T17:59:20.781Z,4.82
2022-10-23T18:01:25.301Z,3.30
2022-10-23T18:03:27.045Z,3.42
2022-10-23T18:05:30.305Z,2.90
2022-10-23T18:07:32.035Z,3.30
2022-10-23T18:09:34.533Z,3.03
2022-10-23T18:11:40.597Z,3.30
2022-10-23T18:13:44.558Z,4.22
2022-10-23T18:15:46.977Z,4.13
2022-10-23T18:17:51.280Z,3.30
2022-10-23T18:19:53.472Z,3.42
2022-10-23T18:21:55.359Z,2.85
2022-10-23T18:24:00.248Z,3.40
2022-10-23T18:26:04.617Z,3.20
2022-10-23T18:28:06.268Z,3.95
2022-10-23T18:30:08.700Z,3.08
2022-10-23T18:32:10.395Z,4.70
2022-10-23T18:34:21.085Z,3.45
2022-10-23T18:36:34.862Z,4.20
2022-10-23T18:38:36.891Z,3.30
2022-10-23T18:40:39.958Z,3.47
2022-10-23T18:42:41.635Z,3.03
2022-10-23T18:44:46.868Z,2.78
2022-10-23T18:46:48.980Z,3.10
2022-10-23T18:48:53.110Z,3.80
2022-10-23T18:50:55.140Z,3.13
2022-10-23T18:52:59.849Z,3.70
2022-10-23T18:55:01.936Z,3.22
2022-10-23T18:57:03.686Z,3.63
2022-10-23T18:59:08.305Z,5.13
2022-10-23T19:01:12.392Z,4.85
2022-10-23T19:03:16.679Z,4.05
2022-10-23T19:05:18.597Z,4.13
2022-10-23T19:07:20.343Z,4.45
2022-10-23T19:09:24.843Z,3.35
2022-10-23T19:11:28.441Z,5.07
2022-10-23T19:13:34.163Z,5.03
2022-10-23T19:15:38.410Z,4.43
2022-10-23T19:17:42.867Z,3.25
2022-10-23T19:19:50.817Z,3.97
2022-10-23T19:21:54.377Z,3.85
2022-10-23T19:23:57.689Z,3.83
2022-10-23T19:26:08.931Z,3.63
2022-10-23T19:28:10.803Z,3.50
2022-10-23T19:30:22.708Z,3.35
2022-10-23T19:32:24.781Z,4.30
2022-10-23T19:34:29.491Z,4.05
2022-10-23T19:36:31.954Z,4.80
2022-10-23T19:38:37.144Z,4.22
2022-10-23T19:40:38.922Z,3.63
2022-10-23T19:42:42.784Z,3.15
2022-10-23T19:44:44.343Z,6.00
2022-10-23T19:46:46.980Z,3.53
2022-10-23T19:48:50.323Z,3.63
2022-10-23T19:50:52.017Z,4.07
2022-10-23T19:52:55.621Z,4.53
2022-10-23T19:54:57.443Z,4.07
2022-10-23T19:56:59.196Z,3.05
2022-10-23T19:59:00.781Z,4.15
2022-10-23T20:01:11.994Z,3.83
2022-10-23T20:03:13.679Z,3.50
2022-10-23T20:05:15.734Z,4.40
2022-10-23T20:07:18.150Z,3.88
2022-10-23T20:09:19.728Z,4.10
2022-10-23T20:11:24.429Z,4.65
2022-10-23T20:13:26.133Z,4.57
2022-10-23T20:15:28.621Z,3.25
2022-10-23T20:17:30.374Z,3.20
2022-10-23T20:19:35.228Z,3.35
2022-10-23T20:21:38.410Z,3.67
2022-10-23T20:23:40.041Z,3.28
2022-10-23T20:25:41.854Z,3.22
2022-10-23T20:27:43.453Z,3.15
2022-10-23T20:29:45.998Z,4.20
2022-10-23T20:31:48.042Z,3.83
2022-10-23T20:33:50.350Z,3.42
2022-10-23T20:35:52.819Z,3.97
2022-10-23T20:37:57.453Z,3.50
2022-10-23T20:39:58.931Z,3.20
2022-10-23T20:42:01.064Z,2.78
2022-10-23T20:44:07.607Z,3.22
2022-10-23T20:46:12.436Z,3.05
2022-10-23T20:48:14.155Z,4.65
2022-10-23T20:50:15.909Z,2.78
2022-10-23T20:52:17.534Z,2.72
2022-10-23T20:54:19.282Z,3.60
2022-10-23T20:56:30.040Z,2.78
2022-10-23T20:58:31.535Z,4.93
2022-10-23T21:00:35.744Z,4.05
2022-10-23T21:02:37.411Z,2.53
2022-10-23T21:04:39.046Z,3.55
2022-10-23T21:07:04.434Z,3.00
2022-10-23T21:09:05.853Z,2.65
2022-10-23T21:11:11.234Z,2.92
2022-10-23T21:13:12.847Z,4.78
2022-10-23T21:15:19.095Z,2.90
2022-10-23T21:17:20.721Z,2.42
2022-10-23T21:19:22.672Z,2.80
2022-10-23T21:21:25.505Z,3.08
2022-10-23T21:23:30.744Z,2.92
2022-10-23T21:25:39.723Z,2.90
2022-10-23T21:27:44.232Z,2.45
2022-10-23T21:29:46.109Z,3.15
2022-10-23T21:31:55.702Z,3.58
2022-10-23T21:33:57.766Z,3.35
2022-10-23T21:36:11.839Z,6.00
2022-10-23T21:38:14.846Z,3.03
2022-10-23T21:40:16.668Z,4.90
2022-10-23T21:42:18.367Z,3.10
2022-10-23T21:44:20.193Z,5.07
2022-10-23T21:46:26.195Z,4.00
2022-10-23T21:48:28.399Z,3.88
2022-10-23T21:50:29.992Z,3.45
2022-10-23T21:52:31.755Z,3.10
2022-10-23T21:54:34.719Z,3.55
2022-10-23T21:56:40.031Z,2.65
2022-10-23T21:58:41.686Z,2.63
2022-10-23T22:00:43.439Z,4.28
2022-10-23T22:02:45.178Z,2.53
2022-10-23T22:04:49.161Z,2.65
2022-10-23T22:06:50.940Z,2.08
2022-10-23T22:08:54.220Z,3.97
2022-10-23T22:10:56.021Z,6.90
2022-10-23T22:12:57.722Z,5.88
2022-10-23T22:15:02.515Z,5.63
2022-10-23T22:17:04.313Z,6.28
2022-10-23T22:19:05.881Z,4.20
2022-10-23T22:21:13.972Z,3.95
2022-10-23T22:23:18.281Z,3.60
2022-10-23T22:25:19.852Z,2.90
2022-10-23T22:27:21.375Z,3.28
2022-10-23T22:29:25.915Z,3.30
2022-10-23T22:31:31.597Z,3.88
2022-10-23T22:33:33.385Z,4.20
2022-10-23T22:35:34.940Z,3.20
2022-10-23T22:37:36.639Z,3.15
2022-10-23T22:39:39.404Z,3.53
2022-10-23T22:41:41.505Z,3.03
2022-10-23T22:43:43.164Z,2.60
2022-10-23T22:45:45.422Z,2.90
2022-10-23T22:47:47.038Z,2.63
2022-10-23T22:49:48.616Z,2.83
2022-10-23T22:51:50.342Z,3.15
2022-10-23T22:53:52.404Z,3.13
2022-10-23T22:55:55.274Z,4.32
2022-10-23T22:57:56.897Z,4.30
2022-10-23T22:59:59.407Z,4.30
2022-10-23T23:02:01.022Z,2.70
2022-10-23T23:04:19.744Z,3.35
2022-10-23T23:06:31.482Z,3.30
2022-10-23T23:08:34.568Z,3.00
2022-10-23T23:10:38.624Z,3.42
2022-10-23T23:12:40.372Z,3.15
2022-10-23T23:14:43.163Z,3.97
2022-10-23T23:16:44.837Z,3.85
2022-10-23T23:18:46.594Z,5.28
2022-10-23T23:20:48.854Z,4.75
2022-10-23T23:22:54.638Z,2.35
2022-10-23T23:24:56.250Z,2.85
2022-10-23T23:26:57.975Z,3.45
2022-10-23T23:29:01.241Z,3.58
2022-10-23T23:31:16.467Z,3.78
2022-10-23T23:33:23.689Z,3.40
2022-10-23T23:35:25.535Z,4.13
2022-10-23T23:37:29.923Z,3.10
2022-10-23T23:39:31.467Z,3.30
2022-10-23T23:41:34.581Z,4.05
2022-10-23T23:43:36.444Z,2.85
2022-10-23T23:45:37.993Z,5.15
2022-10-23T23:47:40.511Z,4.07
2022-10-23T23:49:46.425Z,5.63
2022-10-23T23:51:50.845Z,4.38
2022-10-23T23:53:53.342Z,4.25
2022-10-23T23:55:56.176Z,2.80
2022-10-23T23:57:57.826Z,3.80
2022-10-23T23:59:59.481Z,3.95
